createdAt,value
2019-04-07T00:01:42.174Z,6.8
2019-04-07T00:07:13.802Z,6.8
2019-04-07T00:12:45.188Z,6.8
2019-04-07T00:18:16.088Z,6.9
2019-04-07T00:23:47.833Z,6.7
2019-04-07T00:29:19.538Z,6.5
2019-04-07T00:34:50.148Z,6.9
2019-04-07T00:40:22.286Z,6.7
2019-04-07T00:45:53.297Z,5.5
2019-04-07T00:51:24.029Z,6
2019-04-07T00:56:55.627Z,6.8
2019-04-07T01:02:26.621Z,6.4
2019-04-07T01:07:58.394Z,5.7
2019-04-07T01:13:29.819Z,5.1
2019-04-07T01:19:00.444Z,5.2
2019-04-07T01:24:31.743Z,5.4
2019-04-07T01:30:03.082Z,5.4
2019-04-07T01:35:44.781Z,5.4
2019-04-07T01:41:06.187Z,6.4
2019-04-07T01:46:37.062Z,6.5
2019-04-07T01:52:08.344Z,6.2
2019-04-07T01:57:39.897Z,6.5
2019-04-07T02:03:10.921Z,6.4
2019-04-07T02:08:42.795Z,6.2
2019-04-07T02:14:13.743Z,6
2019-04-07T02:19:44.908Z,6
2019-04-07T02:25:16.179Z,6.7
2019-04-07T02:30:48.039Z,6.9
2019-04-07T02:36:25.607Z,6.3
2019-04-07T02:41:50.307Z,5.6
2019-04-07T02:47:22.516Z,5.6
2019-04-07T02:52:52.983Z,6.2
2019-04-07T02:58:25.285Z,6.2
2019-04-07T03:03:55.630Z,6.4
2019-04-07T03:09:28.085Z,6.4
2019-04-07T03:14:58.513Z,6.3
2019-04-07T03:20:29.693Z,6.4
2019-04-07T03:26:01.033Z,6.3
2019-04-07T03:31:32.850Z,6.3
2019-04-07T03:37:21.118Z,6.5
2019-04-07T03:42:35.801Z,6.4
2019-04-07T03:48:07.057Z,6.2
2019-04-07T03:53:37.838Z,6.2
2019-04-07T03:59:09.114Z,6
2019-04-07T04:04:41.415Z,6
2019-04-07T04:10:12.061Z,5.9
2019-04-07T04:15:43.538Z,6.1
2019-04-07T04:21:15.342Z,5.6
2019-04-07T04:26:45.976Z,5.7
2019-04-07T04:32:17.241Z,5.7
2019-04-07T04:37:51.740Z,5.8
2019-04-07T04:43:19.850Z,5.8
2019-04-07T04:48:51.350Z,5.9
2019-04-07T04:54:22.350Z,6.3
2019-04-07T04:59:54.003Z,6.6
2019-04-07T05:05:25.557Z,6.5
2019-04-07T05:10:57.595Z,7
2019-04-07T05:16:29.317Z,6.8
2019-04-07T05:22:01.408Z,6.9
2019-04-07T05:27:33.702Z,6.7
2019-04-07T05:33:06.308Z,6.7
2019-04-07T05:38:36.721Z,6.7
2019-04-07T05:44:08.013Z,6.3
2019-04-07T05:49:39.323Z,6.1
2019-04-07T05:55:10.884Z,6.3
2019-04-07T06:00:45.716Z,6.6
2019-04-07T06:06:13.553Z,6.7
2019-04-07T06:11:45.422Z,6.9
2019-04-07T06:17:16.283Z,6.8
2019-04-07T06:22:52.616Z,7
2019-04-07T06:28:20.705Z,7
2019-04-07T06:33:54.872Z,6.8
2019-04-07T06:39:24.492Z,6.6
2019-04-07T06:44:56.321Z,6.7
2019-04-07T06:50:27.925Z,6.9
2019-04-07T06:56:02.203Z,7
2019-04-07T07:01:30.652Z,7.2
2019-04-07T07:07:02.310Z,7.3
2019-04-07T07:12:38.670Z,7.5
2019-04-07T07:18:05.624Z,7.7
2019-04-07T07:23:37.618Z,7.7
2019-04-07T07:29:13.184Z,7.6
2019-04-07T07:34:43.295Z,7.9
2019-04-07T07:40:15.820Z,8
2019-04-07T07:45:48.071Z,8.4
2019-04-07T07:51:18.612Z,8.5
2019-04-07T07:56:52.245Z,8.8
2019-04-07T08:02:24.166Z,8.8
2019-04-07T08:07:56.850Z,9.1
2019-04-07T08:13:29.998Z,8.7
2019-04-07T08:19:02.843Z,8.5
2019-04-07T08:24:36.157Z,8.4
2019-04-07T08:30:11.714Z,8.6
2019-04-07T08:35:40.761Z,8.9
2019-04-07T08:41:15.408Z,9.1
2019-04-07T08:46:45.796Z,9.4
2019-04-07T08:52:18.578Z,9.2
2019-04-07T08:57:51.638Z,9
2019-04-07T09:03:24.194Z,8.9
2019-04-07T09:08:56.414Z,9
2019-04-07T09:14:28.555Z,9
2019-04-07T09:20:05.449Z,8.8
2019-04-07T09:25:35.763Z,8.8
2019-04-07T09:31:07.465Z,8.7
2019-04-07T09:36:40.716Z,8.9
2019-04-07T09:42:13.737Z,8.5
2019-04-07T09:47:47.110Z,8.2
2019-04-07T09:53:19.682Z,8.2
2019-04-07T09:58:52.211Z,8.2
2019-04-07T10:04:25.521Z,8.1
2019-04-07T10:10:05.927Z,8.3
2019-04-07T10:15:30.032Z,8.1
2019-04-07T10:21:03.208Z,8.2
2019-04-07T10:26:36.187Z,8.3
2019-04-07T10:32:08.904Z,7.9
2019-04-07T10:37:41.512Z,7.8
2019-04-07T10:43:13.778Z,8.1
2019-04-07T10:48:46.708Z,8
2019-04-07T10:54:19.862Z,7.9
2019-04-07T10:59:51.780Z,8.1
2019-04-07T11:05:24.517Z,8.1
2019-04-07T11:10:57.269Z,8.1
2019-04-07T11:16:31.181Z,7.9
2019-04-07T11:22:02.784Z,8.1
2019-04-07T11:27:35.464Z,8.2
2019-04-07T11:33:08.152Z,8.3
2019-04-07T11:38:40.973Z,8.2
2019-04-07T11:44:13.833Z,8.3
2019-04-07T11:49:46.554Z,8.2
2019-04-07T11:55:19.398Z,8.3
2019-04-07T12:00:52.637Z,8.4
2019-04-07T12:06:25.478Z,8.5
2019-04-07T12:11:58.200Z,8.5
2019-04-07T12:17:30.666Z,8.8
2019-04-07T12:23:03.783Z,8.8
2019-04-07T12:28:37.559Z,8.5
2019-04-07T12:34:12.364Z,8.9
2019-04-07T12:39:42.824Z,8.9
2019-04-07T12:45:15.739Z,9.4
2019-04-07T12:50:54.044Z,8.9
2019-04-07T12:56:31.460Z,8.9
2019-04-07T13:02:01.593Z,8.9
2019-04-07T13:07:32.501Z,8.9
2019-04-07T13:13:05.079Z,8.6
2019-04-07T13:18:39.190Z,8.6
2019-04-07T13:24:12.870Z,8.6
2019-04-07T13:29:44.419Z,9
2019-04-07T13:35:16.491Z,8.9
2019-04-07T13:40:50.005Z,8.9
2019-04-07T13:46:28.579Z,9.3
2019-04-07T13:57:29.475Z,9.1
2019-04-07T14:03:01.892Z,9.1
2019-04-07T14:08:35.050Z,9.2
2019-04-07T14:14:09.630Z,9.1
2019-04-07T14:19:41.246Z,9.2
2019-04-07T14:25:14.513Z,9.3
2019-04-07T14:30:48.864Z,9.3
2019-04-07T14:36:20.722Z,9
2019-04-07T14:42:02.504Z,9.1
2019-04-07T14:47:27.190Z,9
2019-04-07T14:53:00.742Z,9
2019-04-07T14:58:32.451Z,9
2019-04-07T15:04:05.111Z,8.8
2019-04-07T15:09:38.168Z,8.9
2019-04-07T15:15:11.808Z,9.1
2019-04-07T15:20:43.483Z,9.2
2019-04-07T15:26:16.911Z,9.2
2019-04-07T15:31:50.605Z,9
2019-04-07T15:37:23.823Z,9.2
2019-04-07T15:42:54.457Z,8.8
2019-04-07T15:48:27.316Z,8.8
2019-04-07T15:54:00.702Z,9
2019-04-07T15:59:33.053Z,9.1
2019-04-07T16:05:06.171Z,8.9
2019-04-07T16:10:39.079Z,8.8
2019-04-07T16:16:11.311Z,8.9
2019-04-07T16:21:44.039Z,8.8
2019-04-07T16:27:15.588Z,8.7
2019-04-07T16:32:48.372Z,8.7
2019-04-07T16:38:21.260Z,8.7
2019-04-07T16:43:53.502Z,8.6
2019-04-07T16:49:25.799Z,8.7
2019-04-07T16:54:58.582Z,8.6
2019-04-07T17:00:31.199Z,8.6
2019-04-07T17:06:03.474Z,8.6
2019-04-07T17:11:38.750Z,8.6
2019-04-07T17:17:08.436Z,8.5
2019-04-07T17:22:43.458Z,8.6
2019-04-07T17:28:14.105Z,8.6
2019-04-07T17:33:45.680Z,8.5
2019-04-07T17:39:16.736Z,8.4
2019-04-07T17:44:50.039Z,8.4
2019-04-07T17:50:20.085Z,8.4
2019-04-07T17:55:51.611Z,8.3
2019-04-07T18:01:24.758Z,8.4
2019-04-07T18:06:54.991Z,8.4
2019-04-07T18:12:26.992Z,8.4
2019-04-07T18:17:58.761Z,8.3
2019-04-07T18:23:29.993Z,8.3
2019-04-07T18:29:01.822Z,8.3
2019-04-07T18:34:33.592Z,8.3
2019-04-07T18:40:04.703Z,8.2
2019-04-07T18:45:36.324Z,8.1
2019-04-07T18:51:10.490Z,8.1
2019-04-07T18:56:40.436Z,8.1
2019-04-07T19:07:45.815Z,8.1
2019-04-07T19:13:17.335Z,8
2019-04-07T19:18:45.309Z,8
2019-04-07T19:24:16.813Z,8
2019-04-07T19:29:49.879Z,8
2019-04-07T19:35:20.589Z,8
2019-04-07T19:40:51.435Z,7.9
2019-04-07T19:46:26.354Z,7.9
2019-04-07T19:51:54.785Z,7.9
2019-04-07T19:57:26.090Z,7.9
2019-04-07T20:02:57.577Z,7.9
2019-04-07T20:08:32.268Z,7.8
2019-04-07T20:14:00.783Z,7.7
2019-04-07T20:19:37.169Z,7.5
2019-04-07T20:25:08.594Z,7.4
2019-04-07T20:30:35.580Z,7.4
2019-04-07T20:36:06.720Z,7.2
2019-04-07T20:41:38.178Z,7.2
2019-04-07T20:47:09.623Z,7.3
2019-04-07T20:52:41.003Z,7.3
2019-04-07T20:58:18.595Z,7.3
2019-04-07T21:03:46.944Z,7.3
2019-04-07T21:09:15.381Z,7.2
2019-04-07T21:14:47.282Z,7.3
2019-04-07T21:20:18.227Z,7.3
2019-04-07T21:25:51.970Z,7.3
2019-04-07T21:31:21.427Z,7.3
2019-04-07T21:36:52.639Z,7.3
2019-04-07T21:42:24.246Z,7
2019-04-07T21:47:58.521Z,6.8
2019-04-07T21:53:29.407Z,6.8
2019-04-07T21:58:59.092Z,6.9
2019-04-07T22:04:30.103Z,6.9
2019-04-07T22:10:01.129Z,7
2019-04-07T22:15:42.767Z,7
2019-04-07T22:21:03.821Z,7.1
2019-04-07T22:26:35.228Z,7.1
2019-04-07T22:32:07.451Z,7
2019-04-07T22:37:38.082Z,7
2019-04-07T22:43:09.441Z,7
2019-04-07T22:48:41.542Z,7.1
2019-04-07T22:54:12.294Z,7.1
2019-04-07T22:59:43.632Z,6.9
2019-04-07T23:05:15.039Z,6.7
2019-04-07T23:10:46.465Z,6.7
2019-04-07T23:16:18.836Z,6.9
2019-04-07T23:21:49.242Z,7
2019-04-07T23:27:20.687Z,7.1
2019-04-07T23:32:52.144Z,7.1
2019-04-07T23:38:23.952Z,7.1
2019-04-07T23:43:54.937Z,7
2019-04-07T23:49:26.346Z,7
2019-04-07T23:54:58.696Z,6.9
